createdAt,value
2022-12-27T00:01:22.116Z,88.55
2022-12-27T00:03:49.242Z,89.10
2022-12-27T00:06:17.660Z,91.95
2022-12-27T00:08:44.425Z,92.71
2022-12-27T00:11:12.254Z,89.91
2022-12-27T00:13:38.811Z,92.10
2022-12-27T00:16:09.878Z,92.03
2022-12-27T00:18:37.007Z,93.27
2022-12-27T00:21:04.387Z,93.37
2022-12-27T00:23:32.058Z,93.26
2022-12-27T00:26:05.976Z,93.69
2022-12-27T00:28:33.156Z,93.90
2022-12-27T00:30:59.868Z,93.53
2022-12-27T00:33:27.144Z,94.30
2022-12-27T00:35:53.616Z,94.23
2022-12-27T00:38:20.472Z,94.62
2022-12-27T00:40:47.962Z,94.46
2022-12-27T00:43:14.434Z,93.79
2022-12-27T00:45:40.953Z,93.94
2022-12-27T00:48:07.436Z,95.10
2022-12-27T00:50:33.913Z,94.53
2022-12-27T00:53:00.416Z,95.08
2022-12-27T00:55:27.356Z,91.88
2022-12-27T00:57:54.647Z,93.32
2022-12-27T01:00:21.168Z,95.07
2022-12-27T01:02:47.657Z,96.40
2022-12-27T01:05:14.140Z,96.57
2022-12-27T01:07:40.837Z,96.75
2022-12-27T01:10:07.499Z,97.33
2022-12-27T01:12:34.838Z,95.92
2022-12-27T01:15:01.300Z,95.59
2022-12-27T01:17:28.965Z,95.79
2022-12-27T01:19:55.439Z,95.79
2022-12-27T01:22:21.938Z,95.27
2022-12-27T01:24:48.811Z,95.48
2022-12-27T01:27:15.274Z,95.28
2022-12-27T01:29:41.743Z,94.58
2022-12-27T01:32:08.645Z,94.37
2022-12-27T01:34:35.136Z,94.08
2022-12-27T01:37:01.552Z,94.22
2022-12-27T01:39:28.067Z,94.15
2022-12-27T01:42:13.387Z,94.23
2022-12-27T01:44:52.080Z,94.79
2022-12-27T01:47:28.578Z,95.41
2022-12-27T01:49:55.021Z,94.99
2022-12-27T01:52:23.437Z,94.51
2022-12-27T01:54:50.626Z,93.96
2022-12-27T01:57:17.121Z,93.56
2022-12-27T01:59:43.643Z,94.38
2022-12-27T02:02:10.174Z,95.14
2022-12-27T02:04:36.747Z,95.56
2022-12-27T02:07:05.106Z,95.60
2022-12-27T02:09:50.017Z,95.42
2022-12-27T02:12:18.059Z,95.53
2022-12-27T02:14:49.216Z,96.00
2022-12-27T02:17:17.485Z,95.74
2022-12-27T02:19:53.063Z,95.87
2022-12-27T02:23:05.172Z,95.91
2022-12-27T02:25:50.502Z,95.18
2022-12-27T02:28:19.741Z,95.28
2022-12-27T02:30:48.562Z,96.88
2022-12-27T02:33:19.288Z,98.26
2022-12-27T02:35:53.875Z,98.03
2022-12-27T02:38:20.404Z,97.96
2022-12-27T02:41:05.812Z,97.32
2022-12-27T02:43:51.602Z,96.32
2022-12-27T02:46:40.985Z,96.07
2022-12-27T02:50:01.868Z,95.90
2022-12-27T02:53:04.199Z,96.88
2022-12-27T02:55:30.798Z,96.49
2022-12-27T02:58:09.466Z,96.93
2022-12-27T03:01:03.649Z,98.39
2022-12-27T03:03:30.129Z,97.80
2022-12-27T03:06:34.101Z,97.75
2022-12-27T03:09:39.360Z,96.14
2022-12-27T03:12:28.336Z,96.43
2022-12-27T03:15:18.048Z,96.25
2022-12-27T03:17:49.325Z,96.42
2022-12-27T03:20:36.637Z,96.98
2022-12-27T03:23:22.530Z,96.57
2022-12-27T03:25:50.358Z,97.16
2022-12-27T03:28:38.835Z,97.56
2022-12-27T03:31:33.183Z,98.02
2022-12-27T03:34:23.581Z,97.96
2022-12-27T03:37:09.467Z,97.94
2022-12-27T03:39:40.467Z,99.89
2022-12-27T03:42:29.230Z,99.56
2022-12-27T03:44:55.885Z,100.00
2022-12-27T03:47:34.334Z,99.65
2022-12-27T03:50:09.493Z,98.40
2022-12-27T03:52:39.300Z,98.30
2022-12-27T03:55:06.071Z,98.37
2022-12-27T03:57:32.559Z,98.31
2022-12-27T03:59:58.991Z,98.80
2022-12-27T04:02:25.641Z,98.38
2022-12-27T04:04:52.299Z,98.67
2022-12-27T04:07:18.753Z,98.56
2022-12-27T04:10:03.912Z,98.96
2022-12-27T04:12:49.046Z,99.79
2022-12-27T04:15:34.280Z,100.00
2022-12-27T04:18:19.437Z,98.68
2022-12-27T04:21:04.348Z,98.57
2022-12-27T04:23:49.647Z,97.47
2022-12-27T04:26:34.723Z,98.09
2022-12-27T04:29:19.986Z,100.00
2022-12-27T04:32:05.095Z,100.00
2022-12-27T04:34:43.917Z,99.77
2022-12-27T04:37:12.058Z,99.98
2022-12-27T04:39:38.483Z,99.31
2022-12-27T04:42:23.564Z,98.54
2022-12-27T04:45:14.888Z,99.01
2022-12-27T04:48:00.640Z,99.32
2022-12-27T04:50:47.453Z,99.90
2022-12-27T04:53:34.276Z,100.00
2022-12-27T04:56:01.133Z,99.86
2022-12-27T04:58:27.799Z,99.34
2022-12-27T05:01:14.566Z,99.12
2022-12-27T05:03:41.518Z,98.92
2022-12-27T05:06:08.068Z,98.49
2022-12-27T05:08:54.766Z,98.37
2022-12-27T05:11:47.238Z,98.49
2022-12-27T05:14:15.547Z,97.87
2022-12-27T05:16:42.999Z,98.15
2022-12-27T05:19:10.701Z,98.28
2022-12-27T05:22:01.119Z,98.41
2022-12-27T05:24:46.412Z,98.14
2022-12-27T05:27:12.891Z,98.23
2022-12-27T05:29:39.323Z,97.57
2022-12-27T05:32:10.974Z,98.35
2022-12-27T05:34:39.471Z,97.96
2022-12-27T05:37:05.884Z,97.20
2022-12-27T05:39:32.315Z,97.53
2022-12-27T05:41:58.755Z,97.98
2022-12-27T05:44:25.201Z,99.06
2022-12-27T05:46:53.465Z,99.34
2022-12-27T05:49:19.937Z,99.78
2022-12-27T05:51:46.422Z,99.33
2022-12-27T05:54:12.870Z,100.00
2022-12-27T05:56:39.321Z,99.18
2022-12-27T05:59:08.152Z,100.00
2022-12-27T06:01:34.971Z,100.00
2022-12-27T06:04:01.525Z,100.00
2022-12-27T06:06:28.810Z,99.84
2022-12-27T06:08:55.431Z,99.10
2022-12-27T06:11:21.933Z,97.54
2022-12-27T06:13:50.904Z,96.49
2022-12-27T06:16:17.819Z,97.01
2022-12-27T06:18:44.369Z,98.73
2022-12-27T06:21:13.056Z,98.77
2022-12-27T06:23:40.086Z,99.64
2022-12-27T06:26:07.984Z,99.62
2022-12-27T06:28:35.012Z,99.61
2022-12-27T06:31:01.669Z,99.67
2022-12-27T06:33:28.217Z,99.10
2022-12-27T06:35:55.187Z,99.28
2022-12-27T06:38:21.828Z,99.59
2022-12-27T06:40:48.323Z,99.18
2022-12-27T06:43:14.831Z,98.96
2022-12-27T06:45:41.270Z,98.81
2022-12-27T06:48:08.003Z,99.10
2022-12-27T06:50:34.415Z,99.27
2022-12-27T06:53:00.816Z,95.47
2022-12-27T06:55:27.300Z,97.02
2022-12-27T06:57:53.847Z,95.83
2022-12-27T07:00:20.755Z,97.46
2022-12-27T07:02:47.896Z,96.50
2022-12-27T07:05:14.565Z,98.77
2022-12-27T07:07:41.015Z,100.00
2022-12-27T07:10:07.767Z,100.00
2022-12-27T07:12:36.856Z,100.00
2022-12-27T07:15:04.647Z,100.00
2022-12-27T07:17:32.002Z,100.00
2022-12-27T07:19:58.510Z,97.92
2022-12-27T07:22:24.966Z,96.60
2022-12-27T07:24:51.452Z,96.54
2022-12-27T07:27:17.882Z,94.59
2022-12-27T07:29:45.917Z,96.16
2022-12-27T07:32:12.787Z,94.80
2022-12-27T07:34:39.215Z,93.39
2022-12-27T07:37:05.741Z,90.90
2022-12-27T07:39:32.174Z,90.43
2022-12-27T07:42:01.942Z,88.12
2022-12-27T07:44:37.111Z,82.86
2022-12-27T07:47:03.781Z,79.90
2022-12-27T07:49:30.246Z,79.40
2022-12-27T07:51:56.822Z,79.23
2022-12-27T07:54:23.278Z,76.88
2022-12-27T07:56:49.791Z,82.15
2022-12-27T07:59:17.575Z,76.88
2022-12-27T08:02:02.933Z,75.77
2022-12-27T08:04:29.996Z,72.42
2022-12-27T08:07:07.950Z,73.60
2022-12-27T08:09:36.732Z,72.82
2022-12-27T08:12:04.632Z,73.76
2022-12-27T08:14:31.152Z,69.70
2022-12-27T08:17:05.794Z,71.10
2022-12-27T08:19:32.350Z,70.39
2022-12-27T08:21:58.787Z,69.01
2022-12-27T08:24:25.273Z,66.88
2022-12-27T08:26:51.769Z,69.40
2022-12-27T08:29:18.337Z,71.22
2022-12-27T08:31:44.816Z,70.33
2022-12-27T08:34:11.274Z,69.79
2022-12-27T08:36:54.601Z,68.94
2022-12-27T08:39:22.291Z,72.98
2022-12-27T08:41:48.796Z,66.05
2022-12-27T08:44:15.232Z,65.33
2022-12-27T08:46:41.737Z,68.12
2022-12-27T08:49:08.250Z,63.59
2022-12-27T08:51:40.711Z,64.29
2022-12-27T08:54:07.834Z,66.32
2022-12-27T08:56:34.320Z,64.75
2022-12-27T08:59:00.817Z,64.14
2022-12-27T09:01:27.441Z,59.70
2022-12-27T09:03:54.200Z,61.64
2022-12-27T09:06:22.078Z,62.06
2022-12-27T09:08:49.605Z,57.70
2022-12-27T09:11:19.082Z,58.57
2022-12-27T09:13:46.007Z,56.08
2022-12-27T09:16:17.135Z,55.39
2022-12-27T09:18:43.936Z,54.07
2022-12-27T09:21:12.017Z,57.21
2022-12-27T09:23:38.901Z,53.58
2022-12-27T09:26:06.264Z,52.13
2022-12-27T09:28:32.736Z,52.19
2022-12-27T09:30:59.331Z,52.00
2022-12-27T09:33:25.757Z,52.18
2022-12-27T09:35:52.551Z,51.20
2022-12-27T09:38:18.983Z,49.18
2022-12-27T09:40:55.981Z,49.97
2022-12-27T09:43:27.657Z,50.71
2022-12-27T09:45:56.647Z,47.27
2022-12-27T09:48:33.284Z,46.42
2022-12-27T09:51:06.431Z,44.22
2022-12-27T09:53:39.381Z,45.32
2022-12-27T09:56:06.447Z,45.05
2022-12-27T09:58:49.413Z,44.50
2022-12-27T10:01:19.977Z,45.21
2022-12-27T10:03:46.568Z,44.89
2022-12-27T10:06:13.012Z,43.92
2022-12-27T10:08:47.841Z,42.77
2022-12-27T10:11:40.487Z,41.21
2022-12-27T10:14:07.049Z,38.34
2022-12-27T10:16:48.698Z,38.14
2022-12-27T10:19:27.468Z,36.89
2022-12-27T10:21:58.751Z,35.60
2022-12-27T10:24:45.496Z,35.19
2022-12-27T10:27:14.305Z,34.48
2022-12-27T10:29:41.114Z,31.28
2022-12-27T10:32:09.355Z,32.83
2022-12-27T10:34:35.901Z,31.81
2022-12-27T10:37:02.453Z,31.78
2022-12-27T10:39:30.205Z,33.95
2022-12-27T10:42:03.539Z,33.92
2022-12-27T10:44:30.151Z,34.86
2022-12-27T10:46:57.081Z,39.59
2022-12-27T10:49:25.452Z,45.34
2022-12-27T10:51:53.313Z,46.91
2022-12-27T10:54:22.141Z,47.48
2022-12-27T10:56:48.593Z,46.79
2022-12-27T10:59:16.981Z,47.61
2022-12-27T11:01:44.414Z,46.45
2022-12-27T11:04:23.918Z,46.02
2022-12-27T11:07:01.796Z,48.16
2022-12-27T11:09:37.654Z,47.91
2022-12-27T11:12:19.441Z,46.35
2022-12-27T11:15:03.078Z,46.32
2022-12-27T11:17:35.375Z,46.31
2022-12-27T11:20:06.280Z,46.27
2022-12-27T11:22:32.828Z,44.96
2022-12-27T11:25:00.188Z,42.60
2022-12-27T11:27:27.769Z,42.99
2022-12-27T11:29:56.014Z,44.02
2022-12-27T11:32:23.368Z,45.42
2022-12-27T11:34:52.151Z,44.67
2022-12-27T11:37:20.666Z,44.25
2022-12-27T11:39:49.291Z,43.11
2022-12-27T11:42:39.930Z,43.91
2022-12-27T11:45:15.094Z,43.96
2022-12-27T11:48:01.841Z,43.16
2022-12-27T11:50:28.984Z,43.47
2022-12-27T11:53:18.707Z,43.08
2022-12-27T11:56:03.740Z,42.17
2022-12-27T11:58:54.863Z,41.60
2022-12-27T12:01:28.323Z,40.65
2022-12-27T12:04:20.993Z,40.93
2022-12-27T12:07:06.188Z,39.68
2022-12-27T12:09:54.860Z,39.11
2022-12-27T12:12:27.038Z,39.24
2022-12-27T12:15:05.188Z,38.59
2022-12-27T12:17:46.950Z,37.21
2022-12-27T12:20:31.853Z,37.11
2022-12-27T12:23:01.366Z,37.87
2022-12-27T12:25:43.224Z,37.18
2022-12-27T12:28:47.202Z,38.85
2022-12-27T12:31:24.858Z,39.57
2022-12-27T12:33:58.963Z,41.35
2022-12-27T12:36:25.444Z,41.52
2022-12-27T12:39:15.734Z,41.21
2022-12-27T12:42:11.630Z,40.70
2022-12-27T12:44:41.727Z,41.06
2022-12-27T12:47:20.896Z,41.29
2022-12-27T12:49:47.344Z,41.84
2022-12-27T12:52:32.062Z,39.28
2022-12-27T12:54:58.509Z,39.66
2022-12-27T12:57:51.234Z,41.57
2022-12-27T13:00:20.969Z,41.12
2022-12-27T13:02:53.915Z,41.57
2022-12-27T13:05:40.887Z,41.50
2022-12-27T13:08:19.483Z,38.86
2022-12-27T13:11:03.552Z,35.62
2022-12-27T13:13:30.240Z,33.51
2022-12-27T13:16:02.615Z,31.10
2022-12-27T13:18:42.012Z,34.74
2022-12-27T13:21:17.609Z,34.92
2022-12-27T13:23:44.044Z,37.27
2022-12-27T13:26:30.019Z,34.66
2022-12-27T13:28:59.901Z,34.58
2022-12-27T13:31:39.990Z,36.42
2022-12-27T13:34:16.808Z,36.03
2022-12-27T13:36:43.319Z,36.19
2022-12-27T13:39:31.891Z,36.29
2022-12-27T13:42:17.195Z,36.95
2022-12-27T13:45:01.905Z,36.46
2022-12-27T13:47:45.940Z,37.31
2022-12-27T13:50:18.524Z,37.37
2022-12-27T13:52:48.056Z,39.70
2022-12-27T13:55:23.632Z,45.37
2022-12-27T13:57:55.874Z,48.56
2022-12-27T14:00:23.392Z,49.28
2022-12-27T14:03:08.694Z,50.49
2022-12-27T14:05:48.797Z,51.06
2022-12-27T14:08:31.167Z,52.00
2022-12-27T14:11:01.068Z,50.91
2022-12-27T14:13:39.220Z,50.94
2022-12-27T14:16:05.706Z,51.55
2022-12-27T14:18:55.386Z,52.17
2022-12-27T14:21:34.203Z,52.65
2022-12-27T14:24:16.039Z,52.98
2022-12-27T14:26:51.624Z,52.13
2022-12-27T14:29:18.069Z,50.92
2022-12-27T14:31:47.539Z,52.54
2022-12-27T14:34:29.507Z,52.98
2022-12-27T14:37:01.751Z,54.03
2022-12-27T14:39:47.020Z,53.98
2022-12-27T14:42:19.520Z,53.88
2022-12-27T14:45:04.529Z,53.39
2022-12-27T14:47:49.569Z,52.54
2022-12-27T14:50:22.481Z,54.01
2022-12-27T14:53:07.667Z,55.59
2022-12-27T14:55:34.333Z,56.09
2022-12-27T14:58:06.938Z,56.67
2022-12-27T15:00:52.385Z,57.15
2022-12-27T15:03:20.142Z,57.10
2022-12-27T15:05:56.550Z,56.41
2022-12-27T15:08:41.817Z,57.92
2022-12-27T15:11:20.573Z,58.55
2022-12-27T15:13:47.082Z,60.16
2022-12-27T15:16:30.741Z,62.41
2022-12-27T15:19:07.937Z,62.97
2022-12-27T15:21:41.926Z,63.04
2022-12-27T15:24:11.627Z,63.68
2022-12-27T15:26:57.001Z,63.63
2022-12-27T15:29:49.937Z,65.79
2022-12-27T15:32:16.507Z,66.32
2022-12-27T15:35:06.439Z,67.00
2022-12-27T15:37:47.925Z,66.00
2022-12-27T15:40:26.844Z,67.59
2022-12-27T15:43:08.757Z,67.86
2022-12-27T15:45:38.217Z,69.44
2022-12-27T15:48:23.439Z,69.62
2022-12-27T15:51:05.580Z,69.90
2022-12-27T15:53:38.175Z,69.93
2022-12-27T15:56:27.635Z,71.85
2022-12-27T15:59:12.914Z,72.28
2022-12-27T16:01:39.531Z,73.33
2022-12-27T16:04:24.881Z,72.16
2022-12-27T16:06:51.991Z,74.03
2022-12-27T16:09:18.558Z,74.47
2022-12-27T16:12:03.821Z,74.11
2022-12-27T16:14:32.379Z,73.98
2022-12-27T16:17:06.907Z,73.75
2022-12-27T16:19:38.621Z,72.64
2022-12-27T16:22:18.746Z,72.64
2022-12-27T16:24:45.278Z,74.55
2022-12-27T16:27:21.235Z,74.38
2022-12-27T16:29:47.803Z,75.01
2022-12-27T16:32:22.273Z,76.06
2022-12-27T16:34:51.573Z,76.34
2022-12-27T16:37:29.290Z,77.20
2022-12-27T16:40:11.037Z,78.32
2022-12-27T16:42:56.130Z,77.13
2022-12-27T16:45:37.624Z,77.38
2022-12-27T16:48:07.400Z,76.53
2022-12-27T16:50:40.951Z,77.48
2022-12-27T16:53:12.774Z,78.48
2022-12-27T16:55:40.658Z,78.08
2022-12-27T16:58:22.155Z,78.13
2022-12-27T17:00:49.894Z,78.70
2022-12-27T17:03:22.399Z,78.95
2022-12-27T17:06:21.449Z,79.06
2022-12-27T17:08:36.507Z,79.25
2022-12-27T17:11:04.564Z,78.49
2022-12-27T17:13:37.338Z,79.76
2022-12-27T17:16:19.901Z,80.37
2022-12-27T17:18:46.517Z,80.02
2022-12-27T17:21:14.860Z,80.65
2022-12-27T17:23:43.652Z,80.55
2022-12-27T17:26:17.052Z,81.24
2022-12-27T17:28:54.860Z,81.76
2022-12-27T17:31:21.335Z,82.03
2022-12-27T17:33:57.180Z,82.54
2022-12-27T17:36:29.869Z,83.76
2022-12-27T17:39:15.071Z,84.20
2022-12-27T17:42:18.859Z,83.65
2022-12-27T17:44:54.340Z,84.25
2022-12-27T17:47:34.538Z,84.80
2022-12-27T17:50:02.646Z,86.21
2022-12-27T17:52:47.783Z,85.13
2022-12-27T17:55:43.634Z,85.99
2022-12-27T17:58:12.105Z,84.83
2022-12-27T18:00:51.872Z,84.80
2022-12-27T18:03:18.390Z,85.19
2022-12-27T18:05:45.513Z,85.49
2022-12-27T18:08:29.596Z,84.78
2022-12-27T18:10:56.842Z,85.44
2022-12-27T18:13:25.432Z,85.28
2022-12-27T18:15:52.559Z,85.77
2022-12-27T18:18:22.103Z,85.67
2022-12-27T18:20:53.986Z,86.47
2022-12-27T18:23:20.409Z,86.45
2022-12-27T18:25:46.824Z,86.69
2022-12-27T18:28:16.326Z,87.91
2022-12-27T18:30:46.575Z,88.03
2022-12-27T18:33:13.963Z,88.15
2022-12-27T18:35:44.264Z,87.37
2022-12-27T18:38:15.412Z,88.58
2022-12-27T18:40:41.931Z,88.48
2022-12-27T18:43:15.259Z,88.39
2022-12-27T18:45:41.772Z,87.39
2022-12-27T18:48:12.016Z,87.75
2022-12-27T18:50:39.171Z,87.82
2022-12-27T18:53:23.523Z,88.12
2022-12-27T18:56:16.439Z,87.93
2022-12-27T18:58:59.402Z,89.34
2022-12-27T19:01:35.737Z,90.08
2022-12-27T19:04:17.394Z,89.49
2022-12-27T19:06:52.803Z,89.21
2022-12-27T19:09:20.645Z,90.02
2022-12-27T19:11:58.794Z,89.81
2022-12-27T19:14:26.220Z,89.93
2022-12-27T19:16:59.411Z,91.38
2022-12-27T19:19:29.945Z,91.16
2022-12-27T19:21:57.411Z,90.97
2022-12-27T19:24:23.828Z,90.55
2022-12-27T19:26:51.127Z,90.66
2022-12-27T19:29:18.947Z,91.01
2022-12-27T19:31:52.689Z,91.83
2022-12-27T19:34:20.078Z,91.09
2022-12-27T19:36:47.487Z,92.13
2022-12-27T19:39:22.405Z,91.98
2022-12-27T19:41:49.238Z,91.11
2022-12-27T19:44:16.082Z,90.52
2022-12-27T19:46:42.645Z,89.87
2022-12-27T19:49:40.834Z,90.21
2022-12-27T19:51:56.673Z,90.51
2022-12-27T19:54:24.832Z,90.45
2022-12-27T19:56:51.278Z,90.47
2022-12-27T19:59:22.402Z,90.93
2022-12-27T20:01:49.206Z,90.55
2022-12-27T20:04:16.677Z,90.94
2022-12-27T20:06:44.095Z,90.83
2022-12-27T20:09:15.649Z,90.17
2022-12-27T20:11:42.165Z,90.31
2022-12-27T20:14:08.931Z,90.34
2022-12-27T20:16:35.847Z,90.46
2022-12-27T20:19:02.867Z,90.11
2022-12-27T20:21:29.430Z,90.63
2022-12-27T20:23:55.964Z,91.09
2022-12-27T20:26:24.190Z,90.42
2022-12-27T20:28:51.270Z,90.56
2022-12-27T20:31:19.259Z,90.47
2022-12-27T20:33:49.947Z,90.63
2022-12-27T20:36:16.395Z,90.61
2022-12-27T20:38:42.806Z,90.85
2022-12-27T20:41:11.333Z,91.17
2022-12-27T20:43:38.007Z,91.69
2022-12-27T20:46:08.870Z,91.29
2022-12-27T20:48:38.995Z,90.56
2022-12-27T20:51:07.289Z,90.64
2022-12-27T20:53:33.734Z,90.38
2022-12-27T20:56:01.049Z,90.86
2022-12-27T20:58:27.750Z,89.46
2022-12-27T21:00:54.245Z,89.67
2022-12-27T21:03:20.982Z,89.48
2022-12-27T21:05:47.550Z,89.80
2022-12-27T21:08:14.059Z,90.30
2022-12-27T21:10:40.516Z,90.71
2022-12-27T21:13:07.719Z,90.05
2022-12-27T21:15:40.431Z,89.90
2022-12-27T21:18:08.886Z,90.08
2022-12-27T21:20:35.318Z,90.57
2022-12-27T21:23:01.848Z,91.16
2022-12-27T21:25:28.548Z,91.03
2022-12-27T21:27:54.966Z,90.39
2022-12-27T21:30:21.447Z,90.87
2022-12-27T21:32:47.913Z,91.54
2022-12-27T21:35:14.450Z,91.81
2022-12-27T21:37:40.984Z,91.63
2022-12-27T21:40:07.657Z,91.10
2022-12-27T21:42:34.132Z,91.14
2022-12-27T21:45:00.615Z,91.42
2022-12-27T21:47:29.188Z,90.80
2022-12-27T21:49:55.956Z,91.05
2022-12-27T21:52:22.561Z,91.14
2022-12-27T21:54:49.031Z,91.05
2022-12-27T21:57:15.487Z,91.23
2022-12-27T21:59:41.970Z,91.02
2022-12-27T22:02:08.830Z,91.21
2022-12-27T22:04:35.379Z,91.04
2022-12-27T22:07:01.843Z,90.79
2022-12-27T22:09:28.287Z,90.73
2022-12-27T22:11:54.756Z,90.52
2022-12-27T22:14:25.400Z,91.15
2022-12-27T22:16:52.618Z,90.51
2022-12-27T22:19:19.187Z,90.58
2022-12-27T22:21:45.694Z,90.76
2022-12-27T22:24:13.107Z,90.48
2022-12-27T22:26:39.673Z,90.21
2022-12-27T22:29:07.665Z,90.04
2022-12-27T22:31:38.031Z,90.03
2022-12-27T22:34:05.495Z,90.46
2022-12-27T22:36:32.422Z,90.90
2022-12-27T22:38:59.423Z,90.33
2022-12-27T22:41:30.473Z,90.47
2022-12-27T22:43:58.147Z,89.77
2022-12-27T22:46:25.112Z,89.30
2022-12-27T22:48:56.016Z,90.35
2022-12-27T22:51:24.001Z,89.95
2022-12-27T22:53:50.995Z,89.96
2022-12-27T22:56:19.641Z,89.98
2022-12-27T22:58:46.435Z,89.93
2022-12-27T23:01:20.598Z,90.23
2022-12-27T23:03:47.802Z,90.36
2022-12-27T23:06:14.606Z,90.52
2022-12-27T23:08:42.190Z,89.62
2022-12-27T23:11:16.260Z,90.08
2022-12-27T23:13:42.783Z,89.85
2022-12-27T23:16:09.440Z,89.82
2022-12-27T23:18:42.171Z,90.36
2022-12-27T23:21:20.948Z,89.39
2022-12-27T23:23:50.808Z,90.09
2022-12-27T23:26:18.402Z,91.08
2022-12-27T23:28:45.598Z,91.31
2022-12-27T23:31:12.574Z,90.60
2022-12-27T23:33:39.794Z,88.25
2022-12-27T23:36:06.677Z,89.48
2022-12-27T23:38:34.784Z,90.45
2022-12-27T23:41:02.984Z,90.43
2022-12-27T23:46:18.008Z,89.90
2022-12-27T23:48:44.493Z,90.25
2022-12-27T23:51:11.468Z,90.98
2022-12-27T23:53:38.326Z,90.37
2022-12-27T23:56:09.913Z,89.52
2022-12-27T23:58:36.492Z,89.53
